Time;durP1;ratioP1;P1;durP2;ratioP2;P2;SDS_P1;SDS_P2;PMS_P1;PMS_P2;Temp;Humidity;BMP_temperature;BMP_pressure;BME280_temperature;BME280_humidity;BME280_pressure;Samples;Min_cycle;Max_cycle;Signal;HPM_P1;HPM_P2
2022/07/19 00:00:56;;;;;;;3.60;2.40;;;16.00;99.90;17.20;97584.00;;;;5107586;28;20205;-89
2022/07/19 00:03:45;;;;;;;2.50;2.30;;;16.00;99.90;16.70;97582.00;;;;5110573;28;20215;-87
2022/07/19 00:06:34;;;;;;;2.70;2.43;;;15.90;99.90;16.20;97577.00;;;;5091447;28;20211;-89
2022/07/19 00:09:23;;;;;;;2.90;2.70;;;15.70;99.90;16.20;97573.00;;;;5083390;28;20211;-86
2022/07/19 00:12:13;;;;;;;3.93;3.17;;;15.60;99.90;16.20;97575.00;;;;5098590;28;20198;-87
2022/07/19 00:15:02;;;;;;;3.10;2.90;;;15.50;99.90;15.60;97570.00;;;;5087304;28;20206;-86
2022/07/19 00:17:52;;;;;;;5.43;3.00;;;15.30;99.90;15.70;97576.00;;;;5082387;28;20210;-88
2022/07/19 00:20:41;;;;;;;3.13;2.80;;;15.10;99.90;16.10;97573.00;;;;5096439;28;20701;-88
2022/07/19 00:23:30;;;;;;;3.13;2.83;;;15.10;99.90;16.20;97574.00;;;;5101916;28;20223;-87
2022/07/19 00:26:19;;;;;;;2.60;2.40;;;15.10;99.90;16.70;97580.00;;;;5099645;28;20195;-88
2022/07/19 00:29:08;;;;;;;3.30;3.00;;;15.20;99.90;16.80;97573.00;;;;5104908;28;20226;-87
2022/07/19 00:31:57;;;;;;;2.97;2.70;;;15.30;99.90;16.80;97579.00;;;;5094674;28;20203;-87
2022/07/19 00:34:47;;;;;;;4.73;3.07;;;14.70;99.90;16.80;97581.00;;;;5099726;28;20227;-89
2022/07/19 00:37:36;;;;;;;8.50;3.90;;;15.50;99.90;16.30;97581.00;;;;5090390;28;20203;-86
2022/07/19 00:40:26;;;;;;;4.13;2.70;;;15.40;99.90;16.10;97575.00;;;;5091584;28;20227;-86
2022/07/19 00:43:15;;;;;;;3.33;2.53;;;15.40;99.90;15.80;97575.00;;;;5096858;28;20223;-89
2022/07/19 00:46:04;;;;;;;2.97;2.73;;;15.20;99.90;15.60;97573.00;;;;5083224;28;20229;-88
2022/07/19 00:48:53;;;;;;;4.43;3.10;;;15.10;99.90;15.50;97577.00;;;;5094742;28;20210;-85
2022/07/19 00:51:44;;;;;;;3.93;3.00;;;15.00;99.90;15.90;97574.00;;;;5089426;28;20193;-88
2022/07/19 00:54:36;;;;;;;4.33;2.70;;;14.90;99.90;15.80;97571.00;;;;5088879;28;20216;-89
2022/07/19 00:57:25;;;;;;;3.30;3.00;;;14.80;99.90;15.70;97579.00;;;;5090301;28;20200;-87
2022/07/19 01:00:16;;;;;;;2.70;2.50;;;13.10;99.90;16.00;97582.00;;;;5101049;28;20223;-89
2022/07/19 01:03:05;;;;;;;2.50;2.30;;;14.80;99.90;16.10;97570.00;;;;5097895;28;20222;-88
2022/07/19 01:05:53;;;;;;;3.27;2.97;;;14.90;99.90;16.20;97570.00;;;;5109953;28;20206;-88
2022/07/19 01:08:44;;;;;;;3.30;2.70;;;14.80;99.90;16.20;97568.00;;;;5092649;28;20207;-88
2022/07/19 01:11:33;;;;;;;3.83;3.17;;;14.90;99.90;15.70;97563.00;;;;5088687;28;20207;-87
2022/07/19 01:14:22;;;;;;;2.50;2.30;;;14.90;99.90;15.30;97556.00;;;;5100355;28;20219;-88
2022/07/19 01:17:11;;;;;;;3.80;3.10;;;14.80;99.90;15.20;97561.00;;;;5087779;28;20661;-85
2022/07/19 01:19:59;;;;;;;4.83;3.27;;;14.60;99.90;15.20;97554.00;;;;5094917;28;20584;-88
2022/07/19 01:22:50;;;;;;;4.70;2.97;;;14.40;99.90;15.30;97561.00;;;;5090682;28;20215;-89
2022/07/19 01:25:39;;;;;;;2.80;2.57;;;14.40;99.90;15.40;97555.00;;;;5099587;28;20209;-87
2022/07/19 01:28:28;;;;;;;5.80;2.90;;;14.40;99.90;15.10;97563.00;;;;5109826;28;20574;-86
2022/07/19 01:31:17;;;;;;;3.40;3.10;;;14.30;99.90;15.00;97564.00;;;;5091776;28;20211;-89
2022/07/19 01:34:06;;;;;;;3.07;2.77;;;14.20;99.90;14.50;97562.00;;;;5101333;28;20248;-88
2022/07/19 01:36:55;;;;;;;3.50;3.13;;;14.10;99.90;15.00;97551.00;;;;5092058;28;20195;-88
2022/07/19 01:39:45;;;;;;;2.63;2.43;;;14.00;99.90;15.50;97553.00;;;;5095314;28;20238;-89
2022/07/19 01:42:34;;;;;;;3.37;3.07;;;14.10;99.90;15.60;97551.00;;;;5094492;28;20223;-87
2022/07/19 01:45:22;;;;;;;3.27;2.97;;;14.20;99.90;15.50;97547.00;;;;5104911;28;20218;-89
2022/07/19 01:48:11;;;;;;;6.20;2.90;;;14.20;99.90;15.50;97550.00;;;;5110138;28;20194;-86
2022/07/19 01:51:00;;;;;;;4.20;2.93;;;14.30;99.90;15.20;97547.00;;;;5103222;28;20187;-86
2022/07/19 01:53:49;;;;;;;4.10;3.80;;;14.30;99.90;15.20;97544.00;;;;5092779;28;20220;-88
2022/07/19 01:56:43;;;;;;;4.70;3.13;;;14.20;99.90;15.00;97544.00;;;;5107186;28;20202;-88
2022/07/19 01:59:31;;;;;;;3.50;3.20;;;14.20;99.90;14.80;97549.00;;;;5104748;28;20227;-86
2022/07/19 02:02:21;;;;;;;3.77;3.10;;;14.00;99.90;14.70;97548.00;;;;5100911;28;20206;-87
2022/07/19 02:05:10;;;;;;;4.43;3.07;;;13.90;99.90;14.90;97544.00;;;;5096722;28;20617;-87
2022/07/19 02:07:59;;;;;;;4.43;2.67;;;13.90;99.90;15.10;97537.00;;;;5107788;28;20207;-87
2022/07/19 02:10:48;;;;;;;3.00;2.70;;;13.90;99.90;14.60;97546.00;;;;5094464;28;20218;-86
2022/07/19 02:13:38;;;;;;;2.90;2.70;;;13.90;99.90;14.80;97544.00;;;;5092041;28;20228;-88
2022/07/19 02:16:27;;;;;;;3.97;3.03;;;13.80;99.90;14.80;97532.00;;;;5102297;28;20208;-88
2022/07/19 02:19:16;;;;;;;3.33;3.03;;;13.80;99.90;14.60;97532.00;;;;5104341;28;20203;-87
2022/07/19 02:22:04;;;;;;;4.10;2.93;;;13.80;99.90;14.50;97533.00;;;;5104066;28;20200;-90
2022/07/19 02:24:53;;;;;;;3.47;3.17;;;13.70;99.90;14.40;97537.00;;;;5084101;28;20597;-90
2022/07/19 02:27:43;;;;;;;2.63;2.43;;;13.70;99.90;14.00;97532.00;;;;5082519;28;20195;-87
2022/07/19 02:30:33;;;;;;;3.03;2.77;;;13.60;99.90;14.00;97537.00;;;;5081707;28;20223;-85
2022/07/19 02:33:22;;;;;;;4.43;3.20;;;13.40;99.90;14.20;97533.00;;;;5097527;22;20224;-66
2022/07/19 02:36:11;;;;;;;3.20;2.90;;;13.40;99.90;14.50;97533.00;;;;5054339;28;20237;-67
2022/07/19 02:38:59;;;;;;;2.90;2.70;;;13.40;99.90;15.00;97542.00;;;;5056960;28;20279;-67
2022/07/19 02:41:48;;;;;;;3.53;3.00;;;13.50;99.90;15.20;97528.00;;;;5062800;28;20212;-68
2022/07/19 02:44:37;;;;;;;4.77;3.60;;;13.60;99.90;14.80;97532.00;;;;5040912;28;20220;-68
2022/07/19 02:47:27;;;;;;;3.10;2.90;;;13.70;99.90;14.60;97526.00;;;;5035584;28;20857;-69
2022/07/19 02:50:16;;;;;;;3.90;3.50;;;13.60;99.90;14.90;97533.00;;;;5043287;28;20221;-69
2022/07/19 02:53:04;;;;;;;3.83;3.43;;;13.60;99.90;14.60;97525.00;;;;5036199;28;20216;-69
2022/07/19 02:55:53;;;;;;;3.30;3.00;;;13.60;99.90;14.40;97529.00;;;;5041114;28;20201;-69
2022/07/19 02:58:42;;;;;;;4.67;3.47;;;13.60;99.90;14.00;97526.00;;;;5041128;28;20213;-70
2022/07/19 03:01:31;;;;;;;5.97;3.83;;;13.50;99.90;13.70;97526.00;;;;5032642;28;20202;-71
2022/07/19 03:04:21;;;;;;;5.50;3.13;;;13.30;99.90;14.00;97523.00;;;;5036077;28;20232;-69
2022/07/19 03:07:09;;;;;;;5.23;3.80;;;13.20;99.90;14.20;97537.00;;;;5046630;28;20208;-69
2022/07/19 03:09:58;;;;;;;3.90;3.50;;;13.20;99.90;14.10;97532.00;;;;5042998;28;20251;-67
2022/07/19 03:12:47;;;;;;;3.57;3.27;;;13.20;99.90;13.90;97531.00;;;;5045209;28;20235;-66
2022/07/19 03:15:36;;;;;;;3.97;3.60;;;13.20;99.90;13.80;97533.00;;;;5038004;28;20200;-67
2022/07/19 03:18:25;;;;;;;3.60;3.30;;;13.10;99.90;14.10;97541.00;;;;5033672;28;20196;-72
2022/07/19 03:21:15;;;;;;;3.37;3.07;;;13.10;99.90;14.30;97542.00;;;;5037694;28;20193;-69
2022/07/19 03:24:04;;;;;;;6.10;3.90;;;13.10;99.90;14.30;97543.00;;;;5031819;28;20228;-69
2022/07/19 03:26:53;;;;;;;5.77;3.63;;;13.20;99.90;14.50;97543.00;;;;5038852;28;20212;-72
2022/07/19 03:29:42;;;;;;;3.97;3.67;;;13.30;99.90;14.60;97548.00;;;;5036339;28;20205;-69
2022/07/19 03:32:31;;;;;;;5.80;4.17;;;13.40;99.90;14.80;97545.00;;;;5044095;28;20197;-67
2022/07/19 03:35:20;;;;;;;3.50;3.30;;;13.40;99.90;15.10;97553.00;;;;5019404;28;20210;-69
2022/07/19 03:38:10;;;;;;;2.90;2.60;;;13.60;99.90;14.60;97544.00;;;;5018998;28;20673;-69
2022/07/19 03:40:59;;;;;;;4.70;3.93;;;13.70;99.90;14.50;97552.00;;;;5014107;28;20209;-68
2022/07/19 03:43:48;;;;;;;3.67;3.33;;;13.60;99.90;14.40;97548.00;;;;5013635;28;20226;-68
2022/07/19 03:46:36;;;;;;;3.37;3.07;;;13.60;99.90;14.10;97549.00;;;;5011415;28;20195;-70
2022/07/19 03:49:25;;;;;;;3.30;2.63;;;13.40;99.90;14.10;97547.00;;;;5017042;28;20581;-69
2022/07/19 03:52:14;;;;;;;3.70;3.03;;;13.40;99.90;14.10;97550.00;;;;5023878;28;20202;-67
2022/07/19 03:55:08;;;;;;;3.47;3.07;;;14.70;99.90;14.30;97559.00;;;;5021936;28;20206;-68
2022/07/19 03:57:56;;;;;;;4.30;3.60;;;13.30;99.90;14.20;97556.00;;;;5021219;28;20206;-69
2022/07/19 04:00:45;;;;;;;4.17;3.77;;;13.30;99.90;13.80;97556.00;;;;5017424;28;20217;-70
2022/07/19 04:03:38;;;;;;;5.00;3.07;;;13.10;99.90;13.70;97538.00;;;;5023520;28;20224;-70
2022/07/19 04:06:27;;;;;;;3.60;3.20;;;13.10;99.90;13.70;97552.00;;;;5028704;28;20776;-67
2022/07/19 04:09:15;;;;;;;4.80;2.97;;;13.00;99.90;13.40;97551.00;;;;5030264;28;20205;-69
2022/07/19 04:12:06;;;;;;;5.97;3.67;;;12.90;99.90;13.60;97549.00;;;;5022690;28;20229;-69
2022/07/19 04:14:55;;;;;;;4.37;3.97;;;12.80;99.90;13.90;97541.00;;;;5030549;28;20224;-66
2022/07/19 04:17:43;;;;;;;5.03;3.67;;;12.90;99.90;13.80;97548.00;;;;5031297;28;20202;-66
2022/07/19 04:20:32;;;;;;;4.30;3.77;;;13.00;99.90;13.80;97543.00;;;;5030547;28;20217;-67
2022/07/19 04:23:21;;;;;;;5.33;4.17;;;13.10;99.90;13.80;97549.00;;;;5029877;28;20229;-71
2022/07/19 04:26:09;;;;;;;4.40;4.00;;;13.10;99.90;13.60;97557.00;;;;5031749;28;20208;-66
2022/07/19 04:28:59;;;;;;;4.80;3.47;;;13.00;99.90;13.70;97558.00;;;;5019733;28;20213;-69
2022/07/19 04:31:48;;;;;;;7.90;3.03;;;13.00;99.90;13.80;97555.00;;;;5058633;22;20240;-70
2022/07/19 04:34:37;;;;;;;5.13;3.67;;;13.10;99.90;14.20;97559.00;;;;5036774;28;20208;-70
2022/07/19 04:37:25;;;;;;;5.63;3.87;;;13.20;99.90;14.40;97557.00;;;;5047278;28;20200;-75
2022/07/19 04:40:14;;;;;;;4.47;4.07;;;13.30;99.90;14.50;97561.00;;;;5042477;28;20208;-69
2022/07/19 04:43:03;;;;;;;5.33;3.90;;;13.40;99.90;14.70;97546.00;;;;5035586;28;20587;-71
2022/07/19 04:45:53;;;;;;;3.87;3.47;;;13.60;99.90;15.00;97558.00;;;;5017109;28;20202;-70
2022/07/19 04:48:42;;;;;;;7.30;5.03;;;13.70;99.90;15.20;97554.00;;;;5027460;28;20304;-70
2022/07/19 04:51:30;;;;;;;20.73;11.37;;;13.90;99.90;15.40;97563.00;;;;5030014;28;20240;-75
2022/07/19 04:54:19;;;;;;;7.37;5.97;;;14.10;99.90;15.40;97557.00;;;;5023720;28;20723;-69
2022/07/19 04:57:08;;;;;;;4.70;3.67;;;14.20;99.90;15.60;97553.00;;;;5029696;28;20208;-77
2022/07/19 04:59:57;;;;;;;4.77;3.80;;;14.40;99.90;15.20;97555.00;;;;5028118;28;20208;-73
2022/07/19 05:02:47;;;;;;;3.60;3.27;;;14.40;99.90;15.30;97552.00;;;;5028447;28;20939;-74
2022/07/19 05:05:35;;;;;;;6.93;3.27;;;14.50;99.90;15.50;97553.00;;;;5024769;28;20209;-73
2022/07/19 05:08:24;;;;;;;5.57;3.33;;;14.60;99.90;15.50;97553.00;;;;5030216;28;20204;-74
2022/07/19 05:11:13;;;;;;;3.73;3.37;;;14.60;99.90;15.70;97541.00;;;;5029433;28;20213;-71
2022/07/19 05:14:01;;;;;;;3.57;3.30;;;14.70;99.90;15.70;97554.00;;;;5029866;28;20209;-69
2022/07/19 05:16:50;;;;;;;5.00;3.70;;;14.80;99.90;15.90;97539.00;;;;5026322;28;20198;-71
2022/07/19 05:19:40;;;;;;;4.00;3.67;;;15.00;99.90;16.20;97547.00;;;;5022901;28;20212;-76
2022/07/19 05:22:29;;;;;;;7.47;4.50;;;15.10;99.90;16.70;97546.00;;;;5027203;28;20232;-71
2022/07/19 05:25:18;;;;;;;4.80;3.67;;;15.30;99.90;17.30;97545.00;;;;5029813;28;20212;-70
2022/07/19 05:28:08;;;;;;;4.63;3.80;;;15.60;99.90;17.00;97541.00;;;;5023869;28;20248;-75
2022/07/19 05:30:56;;;;;;;6.50;3.87;;;15.80;99.90;17.30;97539.00;;;;5019824;28;20716;-75
2022/07/19 05:33:45;;;;;;;9.30;4.07;;;15.90;99.90;17.60;97547.00;;;;5029472;28;20203;-74
2022/07/19 05:36:35;;;;;;;6.83;4.27;;;16.10;99.90;17.60;97552.00;;;;5028570;28;20205;-71
2022/07/19 05:39:24;;;;;;;4.47;3.70;;;16.30;99.90;17.80;97535.00;;;;5025754;28;20299;-73
2022/07/19 05:42:13;;;;;;;3.67;3.30;;;16.40;99.90;17.80;97534.00;;;;5024105;28;20221;-72
2022/07/19 05:45:02;;;;;;;5.67;3.63;;;16.60;99.90;18.00;97537.00;;;;5023044;28;20204;-75
2022/07/19 05:47:50;;;;;;;4.60;4.20;;;16.70;99.90;18.00;97540.00;;;;5024008;28;20209;-70
2022/07/19 05:50:39;;;;;;;5.90;4.27;;;16.80;99.90;18.40;97543.00;;;;5025975;28;20197;-74
2022/07/19 05:53:29;;;;;;;5.50;3.93;;;17.00;99.90;18.60;97544.00;;;;5027150;28;20216;-70
2022/07/19 05:56:18;;;;;;;4.10;3.70;;;17.20;99.90;19.00;97548.00;;;;5026476;28;20193;-71
2022/07/19 05:59:06;;;;;;;6.10;4.43;;;17.40;99.90;19.20;97551.00;;;;5027114;28;20197;-71
2022/07/19 06:01:55;;;;;;;5.33;4.10;;;17.60;99.90;19.00;97546.00;;;;5029236;28;20629;-71
2022/07/19 06:04:44;;;;;;;4.23;3.73;;;17.70;99.90;19.20;97545.00;;;;5026012;28;20212;-72
2022/07/19 06:07:32;;;;;;;5.97;3.57;;;17.80;99.90;19.50;97541.00;;;;5024380;28;20197;-76
2022/07/19 06:10:23;;;;;;;10.03;3.70;;;18.00;99.90;19.70;97543.00;;;;5025089;28;20205;-74
2022/07/19 06:13:11;;;;;;;5.90;5.30;;;18.20;99.90;19.70;97542.00;;;;5021159;28;20233;-73
2022/07/19 06:16:00;;;;;;;5.80;3.87;;;18.40;99.90;20.20;97548.00;;;;5024184;28;20215;-71
2022/07/19 06:18:49;;;;;;;10.03;4.03;;;18.50;99.90;20.40;97543.00;;;;5024256;28;20197;-72
2022/07/19 06:21:38;;;;;;;12.23;4.40;;;18.70;99.90;20.70;97535.00;;;;5025020;28;20225;-72
2022/07/19 06:24:27;;;;;;;4.67;3.37;;;18.90;99.90;21.10;97545.00;;;;5024824;28;20198;-74
2022/07/19 06:27:17;;;;;;;4.23;3.50;;;19.20;99.90;21.00;97541.00;;;;5022940;28;20217;-75
2022/07/19 06:30:07;;;;;;;3.57;3.27;;;19.30;99.90;21.20;97549.00;;;;5026925;28;20566;-72
2022/07/19 06:32:56;;;;;;;13.00;4.17;;;19.50;99.90;21.20;97545.00;;;;5021043;28;20233;-74
2022/07/19 06:35:44;;;;;;;3.63;3.10;;;19.60;99.90;21.40;97546.00;;;;5025723;28;20209;-72
2022/07/19 06:38:33;;;;;;;4.27;3.37;;;19.80;99.90;21.50;97538.00;;;;5026143;28;20672;-73
2022/07/19 06:41:22;;;;;;;4.80;3.67;;;19.90;99.90;22.10;97540.00;;;;5028410;28;20221;-72
2022/07/19 06:44:16;;;;;;;6.03;3.90;;;20.10;99.90;22.40;97545.00;;;;5028318;28;20832;-72
2022/07/19 06:47:04;;;;;;;3.97;3.57;;;20.30;99.90;22.20;97534.00;;;;5018007;28;20683;-73
2022/07/19 06:49:53;;;;;;;6.67;3.90;;;20.50;99.90;22.70;97527.00;;;;5028827;28;20216;-72
2022/07/19 06:52:47;;;;;;;7.93;3.63;;;20.70;99.90;22.80;97533.00;;;;5027840;28;20244;-73
2022/07/19 06:55:36;;;;;;;5.87;3.87;;;20.80;99.90;22.90;97533.00;;;;5026356;28;20224;-72
2022/07/19 06:58:25;;;;;;;8.93;3.87;;;21.00;99.90;23.00;97533.00;;;;5017758;28;20198;-72
2022/07/19 07:01:17;;;;;;;5.90;4.27;;;21.20;99.90;23.20;97532.00;;;;5027083;28;20574;-72
2022/07/19 07:04:06;;;;;;;5.50;4.60;;;21.40;99.90;23.50;97527.00;;;;5022543;28;20193;-72
2022/07/19 07:06:55;;;;;;;4.63;3.77;;;21.50;99.90;23.10;97520.00;;;;5023946;28;20213;-74
2022/07/19 07:09:45;;;;;;;5.93;3.33;;;21.60;99.90;23.10;97523.00;;;;5025420;28;20194;-71
2022/07/19 07:12:34;;;;;;;5.03;3.60;;;21.80;99.90;23.40;97521.00;;;;5021298;28;20229;-71
2022/07/19 07:15:22;;;;;;;5.53;3.80;;;21.90;99.90;23.80;97525.00;;;;5023128;28;20197;-71
2022/07/19 07:18:12;;;;;;;5.80;3.97;;;22.00;99.90;23.60;97521.00;;;;5020934;28;20210;-71
2022/07/19 07:21:01;;;;;;;4.00;3.57;;;22.20;99.90;23.90;97519.00;;;;5021361;28;20205;-71
2022/07/19 07:23:50;;;;;;;4.00;3.47;;;22.30;99.90;24.50;97523.00;;;;5026380;28;20212;-71
2022/07/19 07:26:38;;;;;;;4.30;3.80;;;22.50;99.90;24.80;97523.00;;;;5022166;28;20202;-71
2022/07/19 07:29:27;;;;;;;4.43;3.70;;;22.80;99.90;24.80;97518.00;;;;5024006;28;20213;-69
2022/07/19 07:32:16;;;;;;;6.73;4.50;;;22.90;99.90;25.00;97517.00;;;;5025978;28;20229;-71
2022/07/19 07:35:07;;;;;;;6.40;5.00;;;23.10;99.90;25.40;97511.00;;;;5020082;28;20205;-71
2022/07/19 07:37:55;;;;;;;4.07;3.40;;;23.30;99.90;25.10;97517.00;;;;5021946;28;20197;-71
2022/07/19 07:40:44;;;;;;;6.43;3.70;;;23.40;99.90;25.20;97512.00;;;;5024368;28;20205;-71
2022/07/19 07:43:33;;;;;;;6.97;3.67;;;23.60;99.90;25.60;97512.00;;;;5027337;28;20228;-71
2022/07/19 07:46:22;;;;;;;6.87;3.70;;;23.70;99.90;26.00;97505.00;;;;5027361;28;20201;-70
2022/07/19 07:49:10;;;;;;;5.03;3.77;;;23.90;99.90;26.20;97502.00;;;;5028589;28;20561;-72
2022/07/19 07:52:01;;;;;;;6.97;4.30;;;24.10;99.90;26.20;97503.00;;;;5029586;28;20762;-71
2022/07/19 07:54:50;;;;;;;4.23;3.90;;;24.30;99.90;26.30;97494.00;;;;5036257;28;20204;-72
2022/07/19 07:57:59;;;;;;;5.60;3.43;;;24.50;99.90;26.60;97501.00;;;;5013842;28;20237;-71
2022/07/19 08:00:47;;;;;;;5.70;3.70;;;24.70;99.90;26.90;97490.00;;;;5030957;28;20211;-72
2022/07/19 08:03:36;;;;;;;5.57;3.63;;;24.80;99.90;26.90;97496.00;;;;5029553;28;20205;-73
2022/07/19 08:06:25;;;;;;;6.87;3.60;;;25.00;99.90;26.90;97495.00;;;;5029250;28;20214;-73
2022/07/19 08:09:15;;;;;;;7.33;3.50;;;25.10;99.90;27.10;97498.00;;;;5029728;28;20202;-72
2022/07/19 08:12:04;;;;;;;3.70;3.40;;;25.20;99.90;27.50;97496.00;;;;5031335;28;20707;-73
2022/07/19 08:14:53;;;;;;;7.13;3.10;;;25.40;99.90;27.80;97491.00;;;;5029644;28;20207;-73
2022/07/19 08:17:42;;;;;;;4.23;3.20;;;25.60;99.90;27.90;97495.00;;;;5026345;28;20195;-73
2022/07/19 08:20:30;;;;;;;3.80;3.50;;;25.70;99.90;28.00;97494.00;;;;5031154;28;20201;-73
2022/07/19 08:23:19;;;;;;;4.23;3.63;;;25.90;99.80;28.20;97487.00;;;;5027986;28;20229;-73
2022/07/19 08:26:09;;;;;;;3.40;3.10;;;26.00;99.40;28.40;97498.00;;;;5031751;28;20215;-73
2022/07/19 08:28:58;;;;;;;4.90;3.50;;;26.30;98.80;28.50;97495.00;;;;5022081;28;20204;-74
2022/07/19 08:31:47;;;;;;;3.93;3.10;;;26.40;97.30;28.80;97491.00;;;;5023119;28;20242;-73
2022/07/19 08:34:36;;;;;;;3.23;2.93;;;26.50;96.40;28.90;97492.00;;;;5029498;28;20669;-73
2022/07/19 08:37:24;;;;;;;2.80;2.50;;;26.70;95.60;29.10;97496.00;;;;5028922;28;20200;-73
2022/07/19 08:40:14;;;;;;;5.60;3.10;;;26.90;94.40;28.90;97493.00;;;;5027664;28;20207;-73
2022/07/19 08:43:06;;;;;;;2.30;2.10;;;27.00;92.20;29.30;97495.00;;;;5023955;28;20227;-73
2022/07/19 08:45:54;;;;;;;3.47;2.13;;;27.10;91.50;29.40;97491.00;;;;5023850;28;20204;-73
2022/07/19 08:48:45;;;;;;;1.97;1.87;;;27.20;86.90;29.60;97489.00;;;;5025511;28;20212;-74
2022/07/19 08:51:35;;;;;;;2.67;2.40;;;27.40;84.70;29.50;97494.00;;;;5026907;28;20678;-71
2022/07/19 08:54:24;;;;;;;3.60;2.23;;;27.50;81.80;28.90;97486.00;;;;5023057;28;20235;-75
2022/07/19 09:00:22;;;;;;;3.50;1.97;;;27.50;84.10;29.90;97490.00;;;;5024970;28;20204;-74
2022/07/19 09:03:12;;;;;;;2.77;2.40;;;27.60;81.60;30.20;97479.00;;;;5025826;28;20229;-75
2022/07/19 09:06:05;;;;;;;2.70;2.27;;;27.80;79.90;30.40;97488.00;;;;5024795;28;20211;-75
2022/07/19 09:08:53;;;;;;;2.50;1.93;;;28.10;78.70;29.90;97486.00;;;;5024701;28;20589;-73
2022/07/19 09:11:50;;;;;;;3.43;1.80;;;28.10;78.00;30.50;97483.00;;;;5025476;28;20259;-74
2022/07/19 09:14:40;;;;;;;2.67;2.37;;;28.20;77.40;31.00;97478.00;;;;5019885;28;20226;-72
2022/07/19 09:17:30;;;;;;;1.90;1.80;;;28.50;75.50;31.10;97482.00;;;;5026706;28;20211;-74
2022/07/19 09:20:27;;;;;;;2.60;2.03;;;28.70;74.20;30.90;97484.00;;;;5030235;28;20204;-73
2022/07/19 09:23:17;;;;;;;4.73;2.23;;;28.90;73.30;31.20;97468.00;;;;5014374;28;20243;-73
2022/07/19 09:26:06;;;;;;;2.40;2.20;;;28.90;70.20;31.50;97474.00;;;;5021301;28;20665;-73
2022/07/19 09:28:55;;;;;;;4.40;2.57;;;29.10;71.90;31.00;97470.00;;;;5021434;28;20210;-73
2022/07/19 09:32:09;;;;;;;5.13;2.23;;;29.20;71.90;30.70;97474.00;;;;5023155;28;20238;-72
2022/07/19 09:35:02;;;;;;;2.87;2.53;;;29.20;70.00;31.00;97471.00;;;;5023147;28;20207;-70
2022/07/19 09:37:51;;;;;;;3.08;2.22;;;29.20;67.80;31.60;97469.00;;;;5019276;28;20395;-70
2022/07/19 09:40:39;;;;;;;3.15;2.60;;;29.30;70.30;31.90;97470.00;;;;5024661;28;20413;-71
2022/07/19 09:43:28;;;;;;;2.50;2.30;;;29.50;66.90;32.20;97464.00;;;;5020899;28;20199;-71
2022/07/19 09:46:39;;;;;;;3.10;1.90;;;29.70;67.40;32.00;97466.00;;;;5020488;28;20207;-71
2022/07/19 09:49:28;;;;;;;1.55;1.30;;;30.00;66.80;32.30;97456.00;;;;5021179;28;20232;-71
2022/07/19 09:52:21;;;;;;;1.65;1.55;;;30.00;62.90;31.80;97453.00;;;;5017901;28;20233;-73
2022/07/19 09:55:11;;;;;;;2.15;1.88;;;30.10;57.40;31.90;97451.00;;;;5018924;28;20598;-74
2022/07/19 09:58:03;;;;;;;4.72;1.80;;;29.90;58.90;32.20;97443.00;;;;5018593;28;20201;-73
2022/07/19 10:00:52;;;;;;;2.72;1.92;;;30.00;59.40;32.90;97452.00;;;;5016260;28;20213;-73
2022/07/19 10:03:42;;;;;;;3.47;2.00;;;30.20;60.10;32.50;97438.00;;;;5023430;28;20728;-72
2022/07/19 10:06:34;;;;;;;3.50;1.98;;;30.30;58.20;32.50;97445.00;;;;5024308;28;20214;-74
2022/07/19 10:09:25;;;;;;;2.30;2.05;;;30.40;58.20;33.20;97437.00;;;;5022818;28;20583;-74
2022/07/19 10:12:17;;;;;;;2.25;1.63;;;30.60;59.50;33.50;97443.00;;;;5020776;28;20238;-73
2022/07/19 10:15:07;;;;;;;2.35;2.05;;;30.80;59.30;33.90;97442.00;;;;5022571;28;20199;-74
2022/07/19 10:18:11;;;;;;;4.53;1.92;;;31.10;58.40;33.30;97448.00;;;;5022009;28;20203;-73
2022/07/19 10:21:01;;;;;;;2.38;2.17;;;31.20;58.70;33.10;97427.00;;;;5022680;28;20226;-74
2022/07/19 10:23:52;;;;;;;6.15;2.25;;;31.20;58.00;33.90;97434.00;;;;5016955;28;20237;-73
2022/07/19 10:26:45;;;;;;;2.25;2.05;;;31.40;59.00;33.40;97433.00;;;;5024199;28;20196;-73
2022/07/19 10:29:33;;;;;;;3.72;2.55;;;31.40;57.50;33.90;97423.00;;;;5024393;28;20679;-73
2022/07/19 10:32:30;;;;;;;2.22;2.00;;;31.50;57.60;34.20;97415.00;;;;5065276;23;20686;-69
2022/07/19 10:35:22;;;;;;;2.95;2.75;;;31.60;56.80;33.70;97409.00;;;;5076246;28;20211;-68
2022/07/19 10:38:12;;;;;;;3.42;2.53;;;31.70;56.00;33.50;97420.00;;;;5069930;28;20217;-68
2022/07/19 10:41:00;;;;;;;2.80;2.22;;;31.70;57.70;32.00;97418.00;;;;5072896;28;20213;-67
2022/07/19 10:46:51;;;;;;;4.00;2.13;;;31.30;54.90;34.40;97420.00;;;;5090209;27;20615;-67
2022/07/19 10:49:43;;;;;;;3.63;1.63;;;31.60;58.30;34.40;97406.00;;;;5098610;28;20198;-66
2022/07/19 10:52:36;;;;;;;2.45;2.25;;;31.90;57.30;34.80;97412.00;;;;5106221;27;21039;-66
2022/07/19 10:55:28;;;;;;;2.00;1.80;;;32.10;56.90;35.10;97406.00;;;;5115508;27;20205;-66
2022/07/19 10:58:17;;;;;;;5.57;2.10;;;32.30;56.90;35.00;97404.00;;;;5119119;27;20195;-69
2022/07/19 11:01:17;;;;;;;2.63;2.40;;;32.50;55.40;35.20;97403.00;;;;5115245;27;20662;-66
2022/07/19 11:04:29;;;;;;;4.35;2.28;;;32.60;55.90;35.60;97399.00;;;;5117639;27;20199;-66
2022/07/19 11:07:21;;;;;;;2.42;2.22;;;32.80;55.80;35.60;97401.00;;;;5113604;27;20205;-66
2022/07/19 11:10:10;;;;;;;3.05;2.10;;;32.90;55.00;34.60;97397.00;;;;5110492;27;20204;-67
2022/07/19 11:13:00;;;;;;;2.20;2.00;;;32.90;54.20;34.80;97402.00;;;;5123665;27;20764;-69
2022/07/19 11:15:56;;;;;;;3.08;2.33;;;32.90;54.30;35.10;97389.00;;;;5120655;27;20681;-67
2022/07/19 11:18:45;;;;;;;2.55;1.83;;;33.10;54.60;35.40;97391.00;;;;5111295;27;20223;-66
2022/07/19 11:21:37;;;;;;;4.15;2.92;;;33.00;54.40;35.90;97392.00;;;;5116615;27;20713;-66
2022/07/19 11:24:27;;;;;;;3.00;2.05;;;33.20;54.00;35.20;97392.00;;;;5118874;27;20204;-67
2022/07/19 11:27:17;;;;;;;3.17;2.03;;;33.20;52.80;36.00;97388.00;;;;5122981;27;22020;-66
2022/07/19 11:30:08;;;;;;;4.35;2.13;;;33.30;52.40;36.00;97388.00;;;;5116371;27;20754;-68
2022/07/19 11:33:00;;;;;;;2.33;2.17;;;33.50;51.80;35.90;97386.00;;;;5127377;27;20217;-67
2022/07/19 11:35:55;;;;;;;3.95;2.25;;;33.60;52.60;36.20;97393.00;;;;5116745;27;20208;-66
2022/07/19 11:38:48;;;;;;;3.80;2.13;;;33.70;51.40;35.30;97387.00;;;;5116825;27;20432;-65
2022/07/19 11:41:38;;;;;;;2.33;2.03;;;33.60;49.60;34.00;97383.00;;;;5113619;27;20241;-69
2022/07/19 11:44:27;;;;;;;1.92;1.80;;;33.20;49.50;35.50;97387.00;;;;5116547;27;20205;-68
2022/07/19 11:47:15;;;;;;;2.58;1.80;;;33.30;50.80;35.80;97377.00;;;;5121031;27;20197;-67
2022/07/19 11:50:06;;;;;;;2.33;2.10;;;33.40;51.30;35.60;97369.00;;;;5122562;27;21147;-68
2022/07/19 11:52:58;;;;;;;2.70;2.08;;;33.50;49.10;36.30;97364.00;;;;5120822;27;20243;-67
2022/07/19 11:55:48;;;;;;;4.75;1.98;;;33.60;50.90;36.80;97363.00;;;;5120545;27;20632;-67
2022/07/19 11:58:40;;;;;;;2.55;1.77;;;34.00;50.80;37.30;97357.00;;;;5106708;27;20193;-67
2022/07/19 12:01:34;;;;;;;2.35;2.10;;;34.20;50.70;38.00;97354.00;;;;5099204;27;20211;-67
2022/07/19 12:04:23;;;;;;;3.65;1.65;;;34.60;51.20;38.00;97353.00;;;;5098471;28;20613;-67
2022/07/19 12:07:12;;;;;;;3.03;2.05;;;34.90;50.70;37.90;97348.00;;;;5097169;27;20225;-67
2022/07/19 12:10:01;;;;;;;2.10;1.60;;;35.20;49.90;37.50;97350.00;;;;5095469;28;20211;-67
2022/07/19 12:12:51;;;;;;;3.13;2.08;;;35.20;49.00;37.70;97351.00;;;;5099912;27;20235;-68
2022/07/19 12:15:53;;;;;;;3.75;2.10;;;35.30;49.40;37.90;97346.00;;;;5095583;27;20688;-67
2022/07/19 12:18:48;;;;;;;1.58;1.48;;;35.40;49.00;36.00;97346.00;;;;5091900;28;20202;-67
2022/07/19 12:21:42;;;;;;;2.55;1.75;;;35.10;48.50;36.60;97341.00;;;;5087927;27;21008;-67
2022/07/19 12:24:32;;;;;;;3.78;2.42;;;34.90;48.40;33.80;97341.00;;;;5092478;28;20206;-67
2022/07/19 12:27:27;;;;;;;4.68;1.77;;;34.30;46.50;34.80;97339.00;;;;5098305;27;20825;-67
2022/07/19 12:30:21;;;;;;;3.47;2.05;;;33.60;47.70;37.10;97336.00;;;;5094402;27;20195;-66
2022/07/19 12:33:15;;;;;;;2.05;1.83;;;33.80;49.30;37.50;97340.00;;;;5096312;27;20234;-68
2022/07/19 12:36:04;;;;;;;2.67;1.50;;;34.20;50.40;37.50;97341.00;;;;5099122;28;20206;-66
2022/07/19 12:38:55;;;;;;;2.13;2.03;;;34.60;48.60;38.60;97334.00;;;;5105401;27;20206;-67
2022/07/19 12:41:55;;;;;;;1.90;1.75;;;35.00;49.20;38.00;97325.00;;;;5108317;28;20215;-67